Decoded Metar for UKDE (MOKRAYA in UKRAINE) (IATA:OZH) | Meteo·Mobile Aviation Weather
aviador You're here:

UKDE Decoded Metar

MOKRAYA in UKRAINE
Report Time2019-09-17 00:00:00
UTC Time2019-09-17 00:15:06
Flight Rules vfr VFR
Wind230° at 6 kt
W.Decomp.*RWY 20: 5.4 kt HW 2.6 kt RCW
Visibility9999 m
Phenomena:N/A
Clouds:N/A
Expected CloudBase > 2,000 ft AGL from Temp-Dew spread
CeilingNone
Temp17°C (ISA +3)
Dew Point12°C (73% RH)
AAT15.5°C
QNH1010 hPa
Density Alt984 ft
Elevation371 ft
Report Wrong Elevation
Raw Report
UKDE 170000Z 23003MPS CAVOK 17/12 Q1010 R02R/////// NOSIG=

Extra information for UKDE:More info

Metar Taf Metar & Taf Last 4 Metars F.Rules Stats Wind Profile Meteogram Temp Stats Airport Information Weather charts Add Link Nearby VenuesMetar ALERT Operation Metar Decoded Social comments